Terminal Aerodrome Forecast
Issued by NWS Twin Cities, MN

Home | Current Version | Previous Version | Text Only | Print | Product List | Glossary On
Versions: 1 2 3 4 5 6 7 8 9 10 11 12 13 14 15 16 17 18 19 20 21 22 23 24 25 26 27 28 29 30
000
FTUS43 KMPX 290520
TAFMSP
TAF
KMSP 290520Z 2906/3012 15006KT P6SM FEW200
     FM290900 17005KT 6SM BR FEW100 FEW200
     FM291300 18006KT P6SM FEW030 SCT200
     FM292200 20009KT P6SM BKN200
      TEMPO 2923/3002 -TSRA BKN060CB OVC090=

USA.gov is the U.S. government's official web portal to all federal, state and local government web resources and services.